Francisco A. Berra, Argentina
Current Conditions -  °F | °C
As of 2:00 PM on Saturday 22 Nov 2014 (Local Time) from SAEZ Reporting Station
Scattered Clouds Scattered Clouds  
Wind Chill: 23°   Ceiling: Unl
Heat Index: 23°   Visibility: 6mi
Dew Point: 10°   Wind: 7mph
Humidity: 44%   Direction: 270°W
Pressure: 29.91"   Gusts: NA
Location:  35.41°S, 58.82°W
Report Text: SAEZ 221700Z 27006KT 150V300 9999 SCT045 23/10 Q1013
Loading
Personal Weather Stations






























Interactive Weather Map New forecast layout! Learn more

10-Day Weather Forecast

Advertisements
Track Severe Weather on mobile